Time;durP1;ratioP1;P1;durP2;ratioP2;P2;SDS_P1;SDS_P2;PMS_P1;PMS_P2;Temp;Humidity;BMP_temperature;BMP_pressure;BME280_temperature;BME280_humidity;BME280_pressure;Samples;Min_cycle;Max_cycle;Signal;HPM_P1;HPM_P2
2023/06/04 00:00:06;;;;;;;10.70;4.47;;;436.10;2355.20;;;;;;5072686;28;20103;-73
2023/06/04 00:02:32;;;;;;;10.30;5.05;;;436.10;2355.20;;;;;;5073515;28;20031;-78
2023/06/04 00:04:58;;;;;;;10.68;4.30;;;436.00;2355.20;;;;;;5073442;28;20027;-78
2023/06/04 00:07:24;;;;;;;8.98;4.30;;;435.90;2355.20;;;;;;5073814;28;20020;-74
2023/06/04 00:13:13;;;;;;;12.30;4.25;;;436.00;2355.20;;;;;;5019227;23;20335;-80
2023/06/04 00:15:38;;;;;;;12.70;4.63;;;435.80;2355.20;;;;;;4880076;29;20094;-79
2023/06/04 00:18:04;;;;;;;9.93;4.45;;;435.70;2355.20;;;;;;4907187;29;20494;-79
2023/06/04 00:20:30;;;;;;;8.88;4.43;;;410.50;2355.20;;;;;;4916785;29;20477;-78
2023/06/04 00:22:55;;;;;;;7.35;4.07;;;435.50;2355.20;;;;;;4916250;29;20063;-74
2023/06/04 00:25:21;;;;;;;8.85;4.22;;;435.70;2355.20;;;;;;4912273;29;20047;-75
2023/06/04 00:27:47;;;;;;;13.63;3.70;;;435.80;2355.20;;;;;;4916919;29;20478;-77
2023/06/04 00:30:13;;;;;;;6.60;3.53;;;435.70;2355.20;;;;;;4912206;29;20028;-71
2023/06/04 00:32:39;;;;;;;6.20;2.88;;;435.50;2355.20;;;;;;4915622;29;20095;-81
2023/06/04 00:35:06;;;;;;;6.50;3.65;;;435.50;2355.20;;;;;;4916534;29;20021;-79
2023/06/04 00:37:31;;;;;;;11.57;3.53;;;435.50;2355.20;;;;;;4916890;29;20032;-80
2023/06/04 00:39:58;;;;;;;8.05;3.35;;;435.60;2355.20;;;;;;4916745;29;20024;-80
2023/06/04 00:42:24;;;;;;;5.30;3.38;;;435.50;2355.20;;;;;;4916695;29;20137;-80
2023/06/04 00:44:50;;;;;;;5.55;3.42;;;435.70;2355.20;;;;;;4916309;29;20515;-80
2023/06/04 00:47:16;;;;;;;7.63;3.90;;;435.70;2355.20;;;;;;4916474;29;20068;-74
2023/06/04 00:49:43;;;;;;;10.25;3.55;;;435.70;2355.20;;;;;;4899626;29;20059;-78
2023/06/04 00:52:13;;;;;;;6.72;3.50;;;435.70;2355.20;;;;;;4916392;29;20032;-80
2023/06/04 00:54:40;;;;;;;14.30;3.75;;;435.70;2355.20;;;;;;4916425;29;20039;-74
2023/06/04 00:57:07;;;;;;;6.05;3.35;;;435.80;2355.20;;;;;;4916184;29;20020;-79
2023/06/04 00:59:33;;;;;;;7.70;3.60;;;435.60;2355.20;;;;;;4916590;29;20028;-79
2023/06/04 01:02:04;;;;;;;6.47;3.25;;;435.70;2355.20;;;;;;4916281;29;20028;-71
2023/06/04 01:04:42;;;;;;;4.93;3.22;;;435.80;2355.20;;;;;;4916378;29;20397;-77
2023/06/04 01:07:12;;;;;;;5.07;3.17;;;435.80;2355.20;;;;;;4916359;29;20043;-77
2023/06/04 01:09:39;;;;;;;6.53;3.50;;;435.90;2355.20;;;;;;4916427;29;20103;-76
2023/06/04 01:12:06;;;;;;;9.65;3.63;;;435.80;2355.20;;;;;;4916113;29;20076;-81
2023/06/04 01:14:33;;;;;;;7.00;3.35;;;435.80;2355.20;;;;;;4915673;29;20562;-79
2023/06/04 01:17:41;;;;;;;6.63;3.95;;;435.80;2355.20;;;;;;4916355;29;20520;-76
2023/06/04 01:20:11;;;;;;;;;;;435.80;2355.20;;;;;;4916518;29;20035;-81
2023/06/04 01:22:56;;;;;;;11.07;3.33;;;435.70;2355.20;;;;;;4915944;29;19911;-78
2023/06/04 01:25:38;;;;;;;9.27;3.67;;;435.60;2355.20;;;;;;4916048;29;20040;-80
2023/06/04 01:28:05;;;;;;;7.03;3.78;;;435.60;2355.20;;;;;;4912051;29;20020;-78
2023/06/04 01:30:43;;;;;;;10.52;3.60;;;435.60;2355.20;;;;;;4915020;29;20032;-75
2023/06/04 01:33:11;;;;;;;6.57;3.13;;;435.50;2355.20;;;;;;4920601;29;20027;-77
2023/06/04 01:35:37;;;;;;;7.13;3.50;;;435.60;2355.20;;;;;;4915478;29;20031;-70
2023/06/04 01:38:03;;;;;;;6.88;3.33;;;435.60;2355.20;;;;;;4914692;29;20032;-74
2023/06/04 01:40:29;;;;;;;7.43;3.30;;;435.70;2355.20;;;;;;4918029;29;20099;-77
2023/06/04 01:42:55;;;;;;;7.28;4.50;;;435.80;2355.20;;;;;;4914903;29;20043;-80
2023/06/04 01:45:22;;;;;;;8.93;3.63;;;435.80;2355.20;;;;;;4914931;29;20482;-77
2023/06/04 01:47:48;;;;;;;8.15;4.03;;;435.80;2355.20;;;;;;4917662;29;20016;-80
2023/06/04 01:50:13;;;;;;;6.22;3.67;;;435.70;2355.20;;;;;;4915054;29;20031;-79
2023/06/04 01:52:40;;;;;;;5.53;3.20;;;435.60;2355.20;;;;;;4917749;29;20032;-80
2023/06/04 01:55:08;;;;;;;5.68;3.33;;;435.60;2355.20;;;;;;4915006;29;20016;-78
2023/06/04 01:57:38;;;;;;;10.25;4.22;;;435.60;2355.20;;;;;;4915158;29;20035;-81
2023/06/04 02:00:09;;;;;;;9.07;3.88;;;435.60;2355.20;;;;;;4914894;29;20020;-75
2023/06/04 02:02:36;;;;;;;9.20;4.00;;;435.50;2355.20;;;;;;4917775;29;20181;-81
2023/06/04 02:05:03;;;;;;;5.97;3.50;;;435.50;2355.20;;;;;;4914781;29;20040;-79
2023/06/04 02:07:31;;;;;;;7.43;3.42;;;435.50;2355.20;;;;;;4915205;29;20028;-72
2023/06/04 02:09:56;;;;;;;9.27;3.65;;;435.60;2355.20;;;;;;4915769;29;20466;-74
2023/06/04 02:12:22;;;;;;;5.95;4.00;;;435.60;2355.20;;;;;;4915193;29;20035;-78
2023/06/04 02:14:48;;;;;;;8.30;3.85;;;435.60;2355.20;;;;;;4915434;29;20049;-77
2023/06/04 02:17:16;;;;;;;7.75;3.45;;;435.70;2355.20;;;;;;4915499;29;20020;-74
2023/06/04 02:19:49;;;;;;;8.02;3.20;;;435.50;2355.20;;;;;;4915523;29;20043;-73
2023/06/04 02:22:19;;;;;;;7.90;3.95;;;435.40;2355.20;;;;;;4922035;29;20120;-72
2023/06/04 02:24:45;;;;;;;6.40;3.70;;;435.40;2355.20;;;;;;4924044;29;20557;-80
2023/06/04 02:27:11;;;;;;;9.85;4.13;;;435.50;2355.20;;;;;;4918777;29;20497;-75
2023/06/04 02:29:38;;;;;;;6.68;3.75;;;435.50;2355.20;;;;;;4918607;29;20024;-81
2023/06/04 02:32:05;;;;;;;8.48;3.88;;;435.30;2355.20;;;;;;4919186;29;20032;-78
2023/06/04 02:34:30;;;;;;;12.80;4.05;;;435.20;2355.20;;;;;;4918547;29;20095;-81
2023/06/04 02:36:56;;;;;;;12.85;3.53;;;410.50;2355.20;;;;;;4918648;29;20467;-80
2023/06/04 02:39:22;;;;;;;8.30;3.95;;;410.50;2355.20;;;;;;4918541;29;20028;-71
2023/06/04 02:41:48;;;;;;;8.63;4.03;;;410.30;2355.20;;;;;;4918677;29;20490;-78
2023/06/04 02:44:13;;;;;;;8.25;3.72;;;410.40;2355.20;;;;;;4930728;29;20032;-80
2023/06/04 02:46:39;;;;;;;17.17;6.20;;;410.20;2355.20;;;;;;4918622;29;20051;-71
2023/06/04 02:49:05;;;;;;;9.05;3.80;;;410.10;2355.20;;;;;;4918256;29;20020;-76
2023/06/04 02:51:32;;;;;;;7.80;3.70;;;410.00;2355.20;;;;;;4918654;29;20115;-77
2023/06/04 02:53:58;;;;;;;7.38;3.72;;;410.00;2355.20;;;;;;4917042;29;20020;-79
2023/06/04 02:56:25;;;;;;;6.57;3.95;;;410.00;2355.20;;;;;;4918301;29;20036;-80
2023/06/04 02:58:55;;;;;;;11.18;3.97;;;410.00;2355.20;;;;;;4945530;28;20020;-79
2023/06/04 03:01:25;;;;;;;5.55;3.35;;;410.30;2355.20;;;;;;4918232;29;20111;-79
2023/06/04 03:03:52;;;;;;;8.15;3.50;;;410.40;2355.20;;;;;;4918343;29;20056;-79
2023/06/04 03:06:22;;;;;;;10.77;4.70;;;410.40;2355.20;;;;;;4917699;29;20096;-79
2023/06/04 03:08:50;;;;;;;6.03;3.55;;;410.30;2355.20;;;;;;4918329;29;20411;-71
2023/06/04 03:11:16;;;;;;;6.82;3.35;;;410.30;2355.20;;;;;;4917967;29;20059;-82
2023/06/04 03:13:41;;;;;;;9.02;4.20;;;410.30;2355.20;;;;;;4917641;29;20044;-80
2023/06/04 03:16:09;;;;;;;6.35;3.53;;;410.40;2355.20;;;;;;4917925;29;20486;-72
2023/06/04 03:18:40;;;;;;;11.52;4.28;;;410.40;2355.20;;;;;;4932495;29;20595;-79
2023/06/04 03:21:06;;;;;;;11.68;3.97;;;410.50;2355.20;;;;;;4917765;29;20024;-82
2023/06/04 03:23:33;;;;;;;8.63;3.72;;;410.50;2355.20;;;;;;4945071;29;20028;-82
2023/06/04 03:26:02;;;;;;;6.40;3.85;;;435.30;2355.20;;;;;;4917768;29;20048;-81
2023/06/04 03:28:28;;;;;;;10.52;3.92;;;435.30;2355.20;;;;;;4917699;29;20562;-72
2023/06/04 03:30:54;;;;;;;6.43;3.63;;;435.30;2355.20;;;;;;4917944;29;20107;-80
2023/06/04 03:33:19;;;;;;;9.50;3.70;;;435.30;2355.20;;;;;;4917439;29;20103;-78
2023/06/04 03:35:45;;;;;;;8.35;3.72;;;435.40;2355.20;;;;;;4916737;29;20028;-81
2023/06/04 03:38:11;;;;;;;5.22;3.25;;;435.50;2355.20;;;;;;4917652;29;20020;-79
2023/06/04 03:40:36;;;;;;;8.38;3.08;;;435.50;2355.20;;;;;;4917504;29;20494;-81
2023/06/04 03:43:04;;;;;;;9.23;3.97;;;435.50;2355.20;;;;;;4917567;29;20024;-82
2023/06/04 03:45:30;;;;;;;9.88;3.60;;;435.50;2355.20;;;;;;4917299;29;20498;-74
2023/06/04 03:47:56;;;;;;;7.30;3.63;;;435.60;2355.20;;;;;;4925177;29;20058;-81
2023/06/04 03:50:22;;;;;;;10.75;4.78;;;435.70;2355.20;;;;;;4922300;29;20474;-72
2023/06/04 03:52:51;;;;;;;9.35;4.03;;;435.80;2355.20;;;;;;4925307;29;20027;-75
2023/06/04 03:55:16;;;;;;;7.15;3.80;;;435.80;2355.20;;;;;;4921537;29;20028;-73
2023/06/04 03:57:42;;;;;;;7.95;3.88;;;435.80;2355.20;;;;;;4917601;29;20362;-73
2023/06/04 04:00:12;;;;;;;9.68;3.65;;;435.90;2355.20;;;;;;4916984;29;20083;-80
2023/06/04 04:02:41;;;;;;;9.75;3.83;;;435.90;2355.20;;;;;;4926828;29;20022;-78
2023/06/04 04:05:08;;;;;;;10.45;3.55;;;436.00;2355.20;;;;;;4936079;29;20020;-73
2023/06/04 04:07:34;;;;;;;9.75;3.53;;;436.10;2355.20;;;;;;4936097;29;20488;-80
2023/06/04 04:10:00;;;;;;;9.85;3.67;;;460.80;2380.80;;;;;;4931913;29;20024;-74
2023/06/04 04:12:26;;;;;;;11.15;4.07;;;460.80;2380.80;;;;;;4927443;29;20069;-80
2023/06/04 04:14:52;;;;;;;6.10;3.53;;;460.90;2380.80;;;;;;4935719;29;20513;-82
2023/06/04 04:17:17;;;;;;;8.40;3.25;;;460.90;2380.80;;;;;;4935993;29;20096;-79
2023/06/04 04:19:43;;;;;;;8.55;3.67;;;460.90;2380.80;;;;;;4935830;29;20051;-75
2023/06/04 04:22:11;;;;;;;7.55;3.85;;;460.90;2380.80;;;;;;4935881;29;20023;-80
2023/06/04 04:24:37;;;;;;;11.43;3.97;;;461.00;2380.80;;;;;;4935774;29;20020;-72
2023/06/04 04:27:04;;;;;;;9.32;3.65;;;461.10;2380.80;;;;;;4935883;29;20028;-82
2023/06/04 04:29:34;;;;;;;7.72;4.00;;;461.20;2380.80;;;;;;4950318;29;20038;-74
2023/06/04 04:32:01;;;;;;;10.13;3.90;;;461.20;2380.80;;;;;;4924058;29;20036;-76
2023/06/04 04:34:27;;;;;;;7.25;3.63;;;461.20;2380.80;;;;;;4922420;29;20079;-82
2023/06/04 04:36:53;;;;;;;8.23;3.70;;;461.20;2380.80;;;;;;4936096;29;20020;-81
2023/06/04 04:39:26;;;;;;;11.07;4.15;;;461.30;2380.80;;;;;;4935530;29;20047;-78
2023/06/04 04:41:53;;;;;;;9.93;3.88;;;461.50;2380.80;;;;;;4935912;29;20492;-74
2023/06/04 04:44:19;;;;;;;8.10;4.00;;;461.50;2380.80;;;;;;4935446;29;20042;-83
2023/06/04 04:46:45;;;;;;;11.63;4.57;;;461.60;2380.80;;;;;;4933651;29;20047;-80
2023/06/04 04:49:10;;;;;;;10.13;5.22;;;461.70;2380.80;;;;;;4935570;29;20028;-79
2023/06/04 04:51:36;;;;;;;13.50;5.07;;;461.70;2380.80;;;;;;4935738;29;20768;-83
2023/06/04 04:54:02;;;;;;;7.55;4.20;;;461.70;2380.80;;;;;;4935537;29;20087;-73
2023/06/04 04:56:28;;;;;;;12.73;4.63;;;486.40;2380.80;;;;;;4935431;29;20024;-75
2023/06/04 04:58:55;;;;;;;7.95;4.10;;;486.40;2380.80;;;;;;4935441;29;20026;-71
2023/06/04 05:01:21;;;;;;;12.13;5.70;;;486.60;2380.80;;;;;;4935106;29;20037;-73
2023/06/04 05:03:47;;;;;;;8.77;4.35;;;486.50;2380.80;;;;;;4935298;29;20107;-82
2023/06/04 05:06:12;;;;;;;18.88;5.18;;;486.80;2380.80;;;;;;4935582;29;20118;-80
2023/06/04 05:08:38;;;;;;;9.13;5.20;;;486.80;2380.80;;;;;;4935220;29;20042;-73
2023/06/04 05:11:04;;;;;;;12.75;5.40;;;486.80;2380.80;;;;;;4935582;29;20031;-83
2023/06/04 05:13:29;;;;;;;10.80;6.35;;;486.80;2380.80;;;;;;4933406;29;20091;-83
2023/06/04 05:15:56;;;;;;;10.35;6.85;;;486.80;2380.80;;;;;;4935465;29;20067;-82
2023/06/04 05:18:28;;;;;;;11.48;6.18;;;486.80;2380.80;;;;;;4935228;29;20015;-82
2023/06/04 05:21:02;;;;;;;9.98;6.60;;;486.80;2380.80;;;;;;4935309;29;20047;-83
2023/06/04 05:23:29;;;;;;;13.57;7.63;;;486.90;2380.80;;;;;;4935028;29;20035;-73
2023/06/04 05:25:56;;;;;;;13.35;7.50;;;486.90;2380.80;;;;;;4935351;29;20036;-72
2023/06/04 05:28:24;;;;;;;11.48;7.60;;;487.00;2380.80;;;;;;4935385;29;20504;-79
2023/06/04 05:30:58;;;;;;;16.02;8.93;;;486.90;2380.80;;;;;;4934995;29;20136;-81
2023/06/04 05:33:25;;;;;;;17.33;7.57;;;486.90;2380.80;;;;;;4935260;29;20079;-84
2023/06/04 05:35:59;;;;;;;12.05;7.90;;;486.90;2380.80;;;;;;4935259;29;20478;-77
2023/06/04 05:38:25;;;;;;;12.48;8.38;;;487.00;2380.80;;;;;;4922835;29;20016;-82
2023/06/04 05:40:57;;;;;;;19.02;8.85;;;487.10;2380.80;;;;;;4934937;29;20031;-79
2023/06/04 05:43:24;;;;;;;12.98;7.20;;;487.20;2380.80;;;;;;4926146;29;20020;-79
2023/06/04 05:45:49;;;;;;;16.10;7.35;;;487.10;2380.80;;;;;;4930201;29;20036;-72
2023/06/04 05:48:15;;;;;;;11.50;6.88;;;487.10;2380.80;;;;;;4934714;29;20030;-73
2023/06/04 05:50:41;;;;;;;12.75;7.90;;;487.30;2380.80;;;;;;4923911;29;20032;-71
2023/06/04 05:53:07;;;;;;;9.80;6.53;;;487.30;2380.80;;;;;;4930288;29;20138;-72
2023/06/04 05:55:32;;;;;;;11.95;8.05;;;512.00;2380.80;;;;;;4925628;29;20036;-72
2023/06/04 05:57:58;;;;;;;11.20;7.50;;;512.10;2380.80;;;;;;4926495;29;20024;-75
2023/06/04 06:00:24;;;;;;;10.48;6.60;;;512.30;2380.80;;;;;;4921933;29;20032;-72
2023/06/04 06:02:50;;;;;;;8.60;6.00;;;512.30;2380.80;;;;;;4931062;29;20110;-70
2023/06/04 06:05:18;;;;;;;11.95;6.60;;;512.30;2380.80;;;;;;4929678;29;20035;-73
2023/06/04 06:07:44;;;;;;;12.23;6.57;;;512.50;2380.80;;;;;;4930722;29;20027;-79
2023/06/04 06:10:10;;;;;;;9.30;6.10;;;512.60;2380.80;;;;;;4928689;29;20067;-74
2023/06/04 06:12:36;;;;;;;9.20;6.40;;;512.60;2380.80;;;;;;4930216;29;20453;-74
2023/06/04 06:15:01;;;;;;;12.38;6.45;;;512.60;2380.80;;;;;;4932561;29;20100;-74
2023/06/04 06:17:28;;;;;;;16.15;6.07;;;512.80;2380.80;;;;;;4931856;29;20034;-74
2023/06/04 06:19:54;;;;;;;8.38;5.88;;;512.80;2380.80;;;;;;4913771;29;20036;-72
2023/06/04 06:22:20;;;;;;;9.35;5.88;;;512.90;2380.80;;;;;;4925885;29;20056;-71
2023/06/04 06:24:48;;;;;;;10.13;6.13;;;537.60;2406.40;;;;;;4932743;29;20019;-77
2023/06/04 06:27:15;;;;;;;11.95;5.90;;;537.60;2406.40;;;;;;4928590;29;20038;-72
2023/06/04 06:29:41;;;;;;;14.02;5.18;;;537.70;2406.40;;;;;;4928869;29;20043;-74
2023/06/04 06:32:07;;;;;;;10.10;5.30;;;537.70;2406.40;;;;;;4928102;29;20020;-73
2023/06/04 06:34:33;;;;;;;9.18;5.32;;;537.70;2406.40;;;;;;4928100;29;20035;-70
2023/06/04 06:36:59;;;;;;;10.32;6.07;;;537.90;2406.40;;;;;;4930082;29;20398;-72
2023/06/04 06:39:24;;;;;;;12.00;4.90;;;537.90;2406.40;;;;;;4926225;29;20079;-70
2023/06/04 06:41:50;;;;;;;9.05;5.28;;;538.00;2406.40;;;;;;4928913;29;20489;-71
2023/06/04 06:44:16;;;;;;;16.30;5.85;;;537.90;2406.40;;;;;;4929378;29;20083;-74
2023/06/04 06:46:41;;;;;;;8.05;4.80;;;538.00;2406.40;;;;;;4929559;29;20044;-74
2023/06/04 06:49:07;;;;;;;9.85;4.57;;;538.00;2406.40;;;;;;4927408;29;20028;-73
2023/06/04 06:51:33;;;;;;;7.28;4.65;;;538.00;2406.40;;;;;;4922303;29;20111;-72
2023/06/04 06:53:59;;;;;;;7.75;4.40;;;538.00;2406.40;;;;;;4924495;29;20527;-82
2023/06/04 06:56:24;;;;;;;7.45;4.18;;;538.20;2406.40;;;;;;4924561;29;20020;-70
2023/06/04 06:58:51;;;;;;;9.43;4.30;;;538.30;2406.40;;;;;;4944430;28;20026;-70
2023/06/04 07:01:17;;;;;;;9.70;4.38;;;538.30;2406.40;;;;;;4933910;29;20467;-71
2023/06/04 07:03:42;;;;;;;7.85;4.68;;;538.50;2406.40;;;;;;4925798;29;20083;-70
2023/06/04 07:06:08;;;;;;;10.05;4.82;;;538.30;2406.40;;;;;;4925693;29;20099;-74
2023/06/04 07:08:35;;;;;;;8.13;4.50;;;538.50;2406.40;;;;;;4929384;29;20020;-69
2023/06/04 07:11:02;;;;;;;9.63;4.45;;;563.20;2432.00;;;;;;4924000;29;20036;-72
2023/06/04 07:13:28;;;;;;;8.27;5.13;;;563.40;2432.00;;;;;;4928744;29;20067;-77
2023/06/04 07:15:54;;;;;;;11.20;5.13;;;563.30;2432.00;;;;;;4924492;29;20088;-72
2023/06/04 07:18:20;;;;;;;8.75;4.60;;;563.30;2432.00;;;;;;4920016;29;20390;-72
2023/06/04 07:20:46;;;;;;;16.50;4.47;;;563.30;2432.00;;;;;;4921770;29;20025;-76
2023/06/04 07:23:11;;;;;;;7.68;4.68;;;563.40;2432.00;;;;;;4935587;29;20359;-71
2023/06/04 07:25:37;;;;;;;9.85;4.90;;;563.50;2432.00;;;;;;4930184;29;20509;-71
2023/06/04 07:28:03;;;;;;;11.23;4.90;;;563.70;2432.00;;;;;;4926372;29;20024;-71
2023/06/04 07:30:33;;;;;;;8.90;4.35;;;564.00;2432.00;;;;;;4929373;29;20032;-70
2023/06/04 07:32:59;;;;;;;9.23;4.68;;;563.90;2432.00;;;;;;4929025;29;20075;-71
2023/06/04 07:35:25;;;;;;;6.68;4.68;;;563.80;2432.00;;;;;;4922164;29;20423;-73
2023/06/04 07:37:51;;;;;;;21.75;7.20;;;564.10;2432.00;;;;;;4930428;29;20106;-71
2023/06/04 07:40:17;;;;;;;8.88;5.68;;;588.80;2432.00;;;;;;4927146;29;20107;-74
2023/06/04 07:42:49;;;;;;;8.20;4.45;;;564.10;2432.00;;;;;;4926191;29;20023;-70
2023/06/04 07:45:15;;;;;;;13.30;5.15;;;564.10;2432.00;;;;;;4927525;29;20477;-72
2023/06/04 07:47:42;;;;;;;9.88;5.15;;;588.80;2432.00;;;;;;4924822;29;20039;-75
2023/06/04 07:50:08;;;;;;;8.70;4.53;;;564.10;2432.00;;;;;;4930317;29;20031;-70
2023/06/04 07:52:34;;;;;;;8.50;5.18;;;588.90;2432.00;;;;;;4919109;29;20032;-72
2023/06/04 07:55:01;;;;;;;11.63;6.78;;;589.00;2432.00;;;;;;4930175;29;20028;-73
2023/06/04 07:57:26;;;;;;;16.58;8.57;;;589.00;2432.00;;;;;;4923367;29;20024;-78
2023/06/04 07:59:52;;;;;;;12.65;5.20;;;589.10;2432.00;;;;;;4919188;29;20043;-72
2023/06/04 08:02:18;;;;;;;9.10;5.47;;;589.10;2432.00;;;;;;4927240;29;20028;-73
2023/06/04 08:04:45;;;;;;;9.98;4.68;;;589.20;2432.00;;;;;;4927023;29;20034;-71
2023/06/04 08:07:11;;;;;;;6.25;3.38;;;589.20;2432.00;;;;;;4928822;29;20035;-75
2023/06/04 08:09:37;;;;;;;10.75;4.53;;;589.20;2432.00;;;;;;4921403;29;20111;-72
2023/06/04 08:12:03;;;;;;;14.00;5.03;;;589.20;2432.00;;;;;;4930379;29;20467;-72
2023/06/04 08:14:29;;;;;;;15.50;4.80;;;589.40;2432.00;;;;;;4924943;29;20138;-72
2023/06/04 08:16:54;;;;;;;9.13;4.25;;;589.30;2432.00;;;;;;4929357;29;20102;-71
2023/06/04 08:19:20;;;;;;;9.27;4.55;;;589.10;2432.00;;;;;;4929519;29;20470;-73
2023/06/04 08:21:47;;;;;;;8.55;4.10;;;589.10;2432.00;;;;;;4924858;29;20076;-73
2023/06/04 08:24:13;;;;;;;8.55;4.78;;;589.10;2432.00;;;;;;4925252;29;20031;-72
2023/06/04 08:26:39;;;;;;;8.63;4.80;;;589.20;2432.00;;;;;;4927040;29;20390;-73
2023/06/04 08:29:05;;;;;;;16.95;4.47;;;589.20;2432.00;;;;;;4924818;29;20119;-72
2023/06/04 08:31:31;;;;;;;11.52;4.75;;;589.10;2432.00;;;;;;4929570;29;20438;-72
2023/06/04 08:33:58;;;;;;;6.10;3.90;;;589.10;2432.00;;;;;;4920033;29;20020;-71
2023/06/04 08:36:23;;;;;;;7.35;4.00;;;589.20;2432.00;;;;;;4929118;29;20019;-72
2023/06/04 08:38:50;;;;;;;6.68;4.00;;;589.20;2432.00;;;;;;4921061;29;20521;-72
2023/06/04 08:41:49;;;;;;;6.97;3.75;;;589.10;2432.00;;;;;;4920852;29;20064;-72
2023/06/04 08:44:17;;;;;;;8.63;4.97;;;589.30;2432.00;;;;;;4873386;29;20068;-72
2023/06/04 08:46:44;;;;;;;8.77;4.43;;;589.40;2432.00;;;;;;4877072;29;20574;-74
2023/06/04 08:49:12;;;;;;;7.97;4.25;;;589.30;2432.00;;;;;;4877236;29;20598;-73
2023/06/04 08:51:38;;;;;;;10.80;3.90;;;589.30;2432.00;;;;;;4877332;29;20108;-72
2023/06/04 08:54:08;;;;;;;8.85;4.38;;;589.40;2432.00;;;;;;4861770;29;20037;-77
2023/06/04 08:56:35;;;;;;;5.20;3.58;;;589.50;2432.00;;;;;;4877051;29;20033;-76
2023/06/04 08:59:03;;;;;;;7.75;3.85;;;589.60;2432.00;;;;;;4876952;29;20033;-73
2023/06/04 09:01:33;;;;;;;6.97;3.55;;;589.60;2432.00;;;;;;4876814;29;20033;-74
2023/06/04 09:04:01;;;;;;;12.15;4.68;;;589.50;2432.00;;;;;;4876883;29;20081;-73
2023/06/04 09:06:28;;;;;;;8.50;3.20;;;589.60;2432.00;;;;;;4876944;29;20037;-72
2023/06/04 09:08:59;;;;;;;9.20;4.28;;;589.60;2432.00;;;;;;4877065;29;20395;-75
2023/06/04 09:11:30;;;;;;;7.88;4.10;;;589.70;2432.00;;;;;;4877103;29;20040;-76
2023/06/04 09:14:00;;;;;;;7.57;3.45;;;614.40;2432.00;;;;;;4876737;29;20132;-77
2023/06/04 09:16:25;;;;;;;7.68;3.78;;;614.50;2432.00;;;;;;4876574;29;20089;-73
2023/06/04 09:18:51;;;;;;;9.00;3.47;;;614.40;2355.20;;;;;;4876810;29;20033;-73
2023/06/04 09:21:19;;;;;;;10.77;4.13;;;589.70;2432.00;;;;;;4915901;29;20046;-75
2023/06/04 09:23:47;;;;;;;6.40;3.58;;;614.50;2406.40;;;;;;4922886;29;20028;-72
2023/06/04 09:26:13;;;;;;;9.95;3.70;;;614.70;2432.00;;;;;;4927570;29;20062;-72
2023/06/04 09:28:43;;;;;;;6.50;3.70;;;614.50;2329.60;;;;;;4929121;29;20048;-71
2023/06/04 09:31:10;;;;;;;6.75;4.00;;;614.40;2380.80;;;;;;4921885;29;20024;-74
2023/06/04 09:33:47;;;;;;;7.20;4.00;;;614.60;2432.00;;;;;;4928528;29;20482;-75
2023/06/04 09:36:13;;;;;;;5.65;3.20;;;;;;;;;;4933503;29;20039;-71
2023/06/04 09:38:39;;;;;;;10.02;4.00;;;614.90;2278.40;;;;;;4928840;29;20034;-78
2023/06/04 09:41:11;;;;;;;9.30;3.13;;;615.00;2227.20;;;;;;4931811;29;20027;-70
2023/06/04 09:43:37;;;;;;;7.93;3.40;;;614.90;2227.20;;;;;;4933599;29;20034;-73
2023/06/04 09:46:11;;;;;;;10.52;4.00;;;614.90;2201.60;;;;;;4918547;29;20039;-72
2023/06/04 09:48:37;;;;;;;6.95;3.42;;;615.00;2304.00;;;;;;4926601;29;20163;-72
2023/06/04 09:51:19;;;;;;;8.27;3.30;;;615.10;2022.40;;;;;;4925704;29;20094;-77
2023/06/04 09:53:58;;;;;;;13.73;3.58;;;615.10;2048.00;;;;;;4926324;29;20020;-71
2023/06/04 09:56:26;;;;;;;10.90;3.30;;;614.90;1996.80;;;;;;4927921;29;20100;-70
2023/06/04 09:59:01;;;;;;;9.27;3.50;;;614.80;2073.60;;;;;;4929759;29;20057;-73
2023/06/04 10:01:28;;;;;;;7.15;3.53;;;614.80;1996.80;;;;;;4929955;29;20011;-72
2023/06/04 10:03:56;;;;;;;9.48;3.30;;;615.20;2124.80;;;;;;4933644;29;20374;-71
2023/06/04 10:06:22;;;;;;;6.68;2.67;;;640.00;1920.00;;;;;;4932264;29;20398;-72
2023/06/04 10:08:49;;;;;;;9.90;3.28;;;640.30;1894.40;;;;;;4928976;29;20032;-73
2023/06/04 10:11:22;;;;;;;9.52;3.38;;;640.40;1945.60;;;;;;4927062;29;20024;-72
2023/06/04 10:13:59;;;;;;;7.85;3.40;;;640.10;1868.80;;;;;;4932731;29;20039;-71
2023/06/04 10:16:26;;;;;;;5.13;2.17;;;640.40;1843.20;;;;;;4929320;29;20020;-72
2023/06/04 10:18:54;;;;;;;8.02;3.00;;;640.30;1766.40;;;;;;4940454;29;20037;-74
2023/06/04 10:21:21;;;;;;;8.45;2.65;;;640.20;1792.00;;;;;;4930858;29;20589;-72
2023/06/04 10:23:47;;;;;;;15.32;3.05;;;640.10;1766.40;;;;;;4931778;29;20028;-71
2023/06/04 10:26:16;;;;;;;5.65;2.85;;;640.00;1766.40;;;;;;4930519;29;20032;-76
2023/06/04 10:28:43;;;;;;;9.02;2.92;;;640.10;1792.00;;;;;;4925333;29;20493;-73
2023/06/04 10:31:12;;;;;;;7.88;2.70;;;640.30;1792.00;;;;;;4924707;29;20031;-72
2023/06/04 10:33:39;;;;;;;8.43;2.90;;;640.20;1792.00;;;;;;4934492;29;20434;-77
2023/06/04 10:36:21;;;;;;;12.05;3.10;;;640.10;1715.20;;;;;;4927476;29;20053;-72
2023/06/04 10:38:55;;;;;;;7.45;3.25;;;640.30;1740.80;;;;;;4931964;29;20390;-75
2023/06/04 10:41:22;;;;;;;9.57;3.40;;;640.40;1715.20;;;;;;4929736;29;20386;-73
2023/06/04 10:43:52;;;;;;;5.75;2.83;;;640.50;1715.20;;;;;;4924965;29;20061;-77
2023/06/04 10:46:20;;;;;;;8.15;2.55;;;640.60;1740.80;;;;;;4931433;29;20103;-74
2023/06/04 10:48:50;;;;;;;7.07;2.35;;;640.60;1689.60;;;;;;4928923;29;20027;-74
2023/06/04 10:51:28;;;;;;;9.40;2.72;;;640.70;1766.40;;;;;;4922759;29;20486;-73
2023/06/04 10:53:54;;;;;;;6.85;2.75;;;640.60;1740.80;;;;;;4933633;29;20020;-72
2023/06/04 10:56:37;;;;;;;11.13;2.85;;;640.50;1715.20;;;;;;4925779;29;20526;-72
2023/06/04 10:59:17;;;;;;;12.52;3.22;;;640.70;1740.80;;;;;;4930450;29;20038;-74
2023/06/04 11:01:43;;;;;;;11.30;2.88;;;640.80;1715.20;;;;;;4925493;29;20506;-76
2023/06/04 11:04:23;;;;;;;9.68;2.67;;;665.60;1740.80;;;;;;4926329;29;20023;-72
2023/06/04 11:07:02;;;;;;;7.88;2.50;;;640.90;1689.60;;;;;;4929749;29;20067;-74
2023/06/04 11:09:27;;;;;;;11.45;2.70;;;640.90;1664.00;;;;;;4944500;28;20030;-75
2023/06/04 11:11:59;;;;;;;4.05;2.35;;;640.70;1612.80;;;;;;4926616;29;20023;-78
2023/06/04 11:14:26;;;;;;;6.43;2.83;;;640.80;1689.60;;;;;;4927478;29;20052;-74
2023/06/04 11:16:51;;;;;;;9.32;2.67;;;640.80;1638.40;;;;;;4928764;29;20032;-74
2023/06/04 11:19:17;;;;;;;8.07;2.50;;;665.70;1664.00;;;;;;4925017;29;20097;-73
2023/06/04 11:21:44;;;;;;;7.28;2.72;;;665.90;1638.40;;;;;;4928891;29;20028;-74
2023/06/04 11:24:12;;;;;;;6.05;2.47;;;665.60;1664.00;;;;;;4924397;29;20062;-75
2023/06/04 11:26:38;;;;;;;10.95;2.70;;;640.70;1664.00;;;;;;4928382;29;20043;-77
2023/06/04 11:29:11;;;;;;;11.07;3.20;;;665.90;1740.80;;;;;;4921833;29;20031;-73
2023/06/04 11:31:44;;;;;;;11.88;2.70;;;666.20;1664.00;;;;;;4927961;29;20043;-73
2023/06/04 11:34:13;;;;;;;7.85;2.63;;;666.20;1664.00;;;;;;4929668;29;20015;-72
2023/06/04 11:36:39;;;;;;;9.07;3.17;;;666.10;1689.60;;;;;;4922761;29;20020;-73
2023/06/04 11:39:08;;;;;;;5.25;2.60;;;666.00;1638.40;;;;;;4927551;29;21849;-79
2023/06/04 11:41:35;;;;;;;7.68;3.40;;;666.30;1689.60;;;;;;4929744;29;20430;-77
2023/06/04 11:44:07;;;;;;;7.35;2.63;;;666.20;1689.60;;;;;;4926534;29;20035;-74
2023/06/04 11:46:33;;;;;;;5.35;2.80;;;666.00;1664.00;;;;;;4926243;29;20036;-74
2023/06/04 11:48:59;;;;;;;8.18;2.63;;;666.00;1664.00;;;;;;4935658;29;20024;-73
2023/06/04 11:51:26;;;;;;;6.25;2.97;;;665.90;1638.40;;;;;;4930819;29;20501;-74
2023/06/04 11:53:52;;;;;;;8.50;2.80;;;665.70;1612.80;;;;;;4931951;29;20027;-77
2023/06/04 11:56:18;;;;;;;5.78;2.47;;;666.20;1689.60;;;;;;4931541;29;20540;-73
2023/06/04 11:58:46;;;;;;;6.50;2.50;;;666.00;1664.00;;;;;;4927971;29;20048;-75
2023/06/04 12:01:13;;;;;;;10.27;2.65;;;666.10;1664.00;;;;;;4931024;29;20020;-74
2023/06/04 12:03:42;;;;;;;4.40;2.42;;;666.20;1689.60;;;;;;4922868;29;20052;-73
2023/06/04 12:06:18;;;;;;;4.80;2.65;;;666.40;1612.80;;;;;;4928231;29;20062;-77
2023/06/04 12:08:55;;;;;;;11.10;2.92;;;666.50;1638.40;;;;;;4925485;29;20124;-72
2023/06/04 12:11:26;;;;;;;7.68;2.42;;;666.30;1612.80;;;;;;4930388;29;20119;-78
2023/06/04 12:13:54;;;;;;;5.30;2.33;;;666.30;1664.00;;;;;;4929558;29;20098;-73
2023/06/04 12:16:20;;;;;;;7.32;3.28;;;666.40;1664.00;;;;;;4930334;29;20118;-76
2023/06/04 12:18:45;;;;;;;5.25;2.35;;;666.20;1638.40;;;;;;4924218;29;20579;-78
2023/06/04 12:21:27;;;;;;;7.20;2.83;;;666.50;1689.60;;;;;;4933136;29;20028;-74